createdAt,value
2018-08-10T00:00:17.997Z,97369.00
2018-08-10T00:03:00.511Z,97361.00
2018-08-10T00:05:41.669Z,97370.00
2018-08-10T00:08:22.151Z,97371.00
2018-08-10T00:11:02.720Z,97369.00
2018-08-10T00:13:43.247Z,97371.00
2018-08-10T00:16:23.943Z,97377.00
2018-08-10T00:19:04.549Z,97384.00
2018-08-10T00:21:45.192Z,97387.00
2018-08-10T00:24:26.528Z,97382.00
2018-08-10T00:27:07.089Z,97388.00
2018-08-10T00:29:47.643Z,97397.00
2018-08-10T00:32:30.624Z,97402.00
2018-08-10T00:35:11.426Z,97403.00
2018-08-10T00:37:51.877Z,97405.00
2018-08-10T00:40:33.380Z,97426.00
2018-08-10T00:43:13.931Z,97419.00
2018-08-10T00:45:54.484Z,97422.00
2018-08-10T00:48:35.474Z,97427.00
2018-08-10T00:51:16.634Z,97423.00
2018-08-10T00:53:59.516Z,97433.00
2018-08-10T00:56:40.024Z,97430.00
2018-08-10T00:59:20.616Z,97426.00
2018-08-10T01:02:03.887Z,97417.00
2018-08-10T01:04:44.248Z,97439.00
2018-08-10T01:07:26.764Z,97441.00
2018-08-10T01:10:11.381Z,97429.00
2018-08-10T01:12:51.999Z,97433.00
2018-08-10T01:15:32.972Z,97436.00
2018-08-10T01:18:13.503Z,97428.00
2018-08-10T01:20:54.080Z,97421.00
2018-08-10T01:23:34.716Z,97423.00
2018-08-10T01:26:15.424Z,97425.00
2018-08-10T01:28:56.529Z,97429.00
2018-08-10T01:31:37.194Z,97430.00
2018-08-10T01:34:17.659Z,97421.00
2018-08-10T01:37:00.556Z,97416.00
2018-08-10T01:39:40.908Z,97412.00
2018-08-10T01:42:21.367Z,97418.00
2018-08-10T01:45:02.551Z,97401.00
2018-08-10T01:47:44.156Z,97406.00
2018-08-10T01:50:24.708Z,97397.00
2018-08-10T01:53:05.267Z,97412.00
2018-08-10T01:55:45.869Z,97395.00
2018-08-10T01:58:30.553Z,97392.00
2018-08-10T02:01:11.199Z,97389.00
2018-08-10T02:03:52.419Z,97388.00
2018-08-10T02:06:32.987Z,97392.00
2018-08-10T02:09:13.552Z,97393.00
2018-08-10T02:11:54.076Z,97387.00
2018-08-10T02:14:34.694Z,97395.00
2018-08-10T02:17:15.352Z,97388.00
2018-08-10T02:46:00.013Z,97394.00
2018-08-10T02:48:40.548Z,97378.00
2018-08-10T02:51:21.158Z,97382.00
2018-08-10T02:54:01.636Z,97380.00
2018-08-10T02:56:42.143Z,97384.00
2018-08-10T02:59:22.665Z,97375.00
2018-08-10T03:02:03.144Z,97381.00
2018-08-10T03:04:44.000Z,97379.00
2018-08-10T03:07:24.363Z,97382.00
2018-08-10T03:10:06.136Z,97385.00
2018-08-10T03:12:46.647Z,97390.00
2018-08-10T03:15:28.784Z,97381.00
2018-08-10T03:18:09.175Z,97396.00
2018-08-10T03:20:49.728Z,97387.00
2018-08-10T03:23:30.891Z,97396.00
2018-08-10T03:26:11.428Z,97384.00
2018-08-10T03:28:51.752Z,97402.00
2018-08-10T03:31:32.101Z,97399.00
2018-08-10T03:34:12.595Z,97401.00
2018-08-10T03:36:53.162Z,97406.00
2018-08-10T03:39:33.643Z,97410.00
2018-08-10T03:42:14.182Z,97424.00
2018-08-10T03:44:55.744Z,97417.00
2018-08-10T03:47:36.522Z,97434.00
2018-08-10T03:50:16.939Z,97419.00
2018-08-10T03:52:59.792Z,97436.00
2018-08-10T03:55:40.299Z,97436.00
2018-08-10T03:58:20.576Z,97420.00
2018-08-10T04:01:01.522Z,97430.00
2018-08-10T04:03:41.875Z,97420.00
2018-08-10T04:06:22.344Z,97413.00
2018-08-10T04:09:02.835Z,97419.00
2018-08-10T04:11:43.897Z,97421.00
2018-08-10T04:14:24.401Z,97449.00
2018-08-10T04:17:04.761Z,97463.00
2018-08-10T04:19:45.348Z,97468.00
2018-08-10T04:22:26.849Z,97460.00
2018-08-10T04:25:07.463Z,97464.00
2018-08-10T04:27:47.909Z,97463.00
2018-08-10T04:30:30.061Z,97457.00
2018-08-10T04:33:11.016Z,97456.00
2018-08-10T04:35:51.369Z,97456.00
2018-08-10T04:38:32.793Z,97447.00
2018-08-10T04:41:13.139Z,97452.00
2018-08-10T04:43:53.704Z,97444.00
2018-08-10T04:46:34.236Z,97450.00
2018-08-10T04:49:14.756Z,97447.00
2018-08-10T04:51:55.719Z,97465.00
2018-08-10T04:54:36.149Z,97463.00
2018-08-10T04:57:16.812Z,97465.00
2018-08-10T04:59:59.880Z,97456.00
2018-08-10T05:02:40.334Z,97464.00
2018-08-10T05:05:21.607Z,97474.00
2018-08-10T05:08:02.007Z,97475.00
2018-08-10T05:10:42.592Z,97476.00
2018-08-10T05:13:23.065Z,97488.00
2018-08-10T05:16:03.635Z,97494.00
2018-08-10T05:18:44.110Z,97511.00
2018-08-10T05:21:25.803Z,97518.00
2018-08-10T05:24:06.220Z,97522.00
2018-08-10T05:26:46.679Z,97520.00
2018-08-10T05:29:28.711Z,97529.00
2018-08-10T05:32:09.266Z,97530.00
2018-08-10T05:34:49.823Z,97538.00
2018-08-10T05:37:31.651Z,97533.00
2018-08-10T05:40:12.060Z,97544.00
2018-08-10T05:42:52.569Z,97543.00
2018-08-10T05:45:33.035Z,97534.00
2018-08-10T05:48:13.579Z,97541.00
2018-08-10T05:50:54.091Z,97550.00
2018-08-10T05:53:34.547Z,97536.00
2018-08-10T05:56:15.185Z,97548.00
2018-08-10T05:58:56.643Z,97555.00
2018-08-10T06:01:37.044Z,97549.00
2018-08-10T06:04:17.416Z,97548.00
2018-08-10T06:06:59.777Z,97553.00
2018-08-10T06:09:40.052Z,97566.00
2018-08-10T06:12:20.354Z,97570.00
2018-08-10T06:15:01.638Z,97563.00
2018-08-10T06:17:42.320Z,97562.00
2018-08-10T06:20:22.720Z,97567.00
2018-08-10T06:23:03.243Z,97577.00
2018-08-10T06:25:43.844Z,97564.00
2018-08-10T06:28:25.978Z,97574.00
2018-08-10T06:31:06.567Z,97582.00
2018-08-10T06:33:47.237Z,97589.00
2018-08-10T06:36:30.069Z,97594.00
2018-08-10T06:39:11.219Z,97594.00
2018-08-10T06:41:51.636Z,97600.00
2018-08-10T06:44:32.212Z,97616.00
2018-08-10T06:47:12.829Z,97618.00
2018-08-10T06:49:53.242Z,97616.00
2018-08-10T06:52:33.756Z,97618.00
2018-08-10T06:55:14.199Z,97621.00
2018-08-10T06:57:55.785Z,97630.00
2018-08-10T07:00:37.477Z,97617.00
2018-08-10T07:03:18.065Z,97614.00
2018-08-10T07:06:02.397Z,97624.00
2018-08-10T07:08:42.949Z,97609.00
2018-08-10T07:11:23.532Z,97617.00
2018-08-10T07:14:04.031Z,97620.00
2018-08-10T07:16:44.748Z,97628.00
2018-08-10T07:19:26.439Z,97615.00
2018-08-10T07:22:07.216Z,97631.00
2018-08-10T07:24:47.857Z,97630.00
2018-08-10T07:27:30.620Z,97632.00
2018-08-10T07:30:11.820Z,97628.00
2018-08-10T07:32:52.444Z,97637.00
2018-08-10T07:35:32.952Z,97643.00
2018-08-10T07:38:13.403Z,97645.00
2018-08-10T07:40:54.265Z,97647.00
2018-08-10T07:43:34.723Z,97648.00
2018-08-10T07:46:15.264Z,97651.00
2018-08-10T07:48:57.040Z,97651.00
2018-08-10T07:51:37.597Z,97655.00
2018-08-10T07:54:18.112Z,97657.00
2018-08-10T07:57:00.287Z,97665.00
2018-08-10T07:59:40.783Z,97659.00
2018-08-10T08:02:21.356Z,97667.00
2018-08-10T08:05:01.810Z,97667.00
2018-08-10T08:07:42.363Z,97668.00
2018-08-10T08:10:23.064Z,97674.00
2018-08-10T08:13:03.700Z,97679.00
2018-08-10T08:15:44.191Z,97671.00
2018-08-10T08:18:26.212Z,97672.00
2018-08-10T08:21:08.785Z,97676.00
2018-08-10T08:23:49.278Z,97671.00
2018-08-10T08:26:30.709Z,97673.00
2018-08-10T08:29:11.136Z,97677.00
2018-08-10T08:31:51.730Z,97681.00
2018-08-10T08:34:32.214Z,97686.00
2018-08-10T08:37:12.984Z,97684.00
2018-08-10T08:40:30.817Z,97686.00
2018-08-10T08:43:11.231Z,97686.00
2018-08-10T08:45:59.298Z,97684.00
2018-08-10T08:48:42.347Z,97690.00
2018-08-10T08:51:26.152Z,97689.00
2018-08-10T08:56:26.928Z,97692.00
2018-08-10T08:59:07.338Z,97700.00
2018-08-10T09:01:47.878Z,97697.00
2018-08-10T09:05:05.299Z,97703.00
2018-08-10T09:07:45.858Z,97701.00
2018-08-10T09:10:28.965Z,97702.00
2018-08-10T09:13:09.355Z,97715.00
2018-08-10T09:15:49.850Z,97714.00
2018-08-10T09:18:31.271Z,97711.00
2018-08-10T09:21:11.675Z,97706.00
2018-08-10T09:23:52.054Z,97703.00
2018-08-10T09:26:32.548Z,97703.00
2018-08-10T09:29:13.175Z,97706.00
2018-08-10T09:31:53.836Z,97702.00
2018-08-10T09:34:34.452Z,97710.00
2018-08-10T09:37:14.982Z,97713.00
2018-08-10T09:40:00.706Z,97710.00
2018-08-10T09:42:41.145Z,97708.00
2018-08-10T09:45:21.739Z,97711.00
2018-08-10T09:48:02.261Z,97711.00
2018-08-10T09:50:43.331Z,97712.00
2018-08-10T09:53:23.950Z,97712.00
2018-08-10T09:56:04.724Z,97711.00
2018-08-10T09:58:45.293Z,97717.00
2018-08-10T10:01:27.483Z,97730.00
2018-08-10T10:04:08.499Z,97729.00
2018-08-10T10:06:49.137Z,97722.00
2018-08-10T10:09:31.680Z,97723.00
2018-08-10T10:12:12.189Z,97726.00
2018-08-10T10:14:52.796Z,97724.00
2018-08-10T10:17:33.558Z,97736.00
2018-08-10T10:20:14.494Z,97729.00
2018-08-10T10:22:56.217Z,97736.00
2018-08-10T10:25:36.695Z,97729.00
2018-08-10T10:28:17.407Z,97737.00
2018-08-10T10:31:00.393Z,97732.00
2018-08-10T10:33:40.981Z,97726.00
2018-08-10T10:36:21.587Z,97726.00
2018-08-10T10:39:02.783Z,97718.00
2018-08-10T10:41:43.464Z,97726.00
2018-08-10T10:44:23.999Z,97719.00
2018-08-10T10:47:05.001Z,97716.00
2018-08-10T10:49:45.951Z,97722.00
2018-08-10T10:52:29.696Z,97727.00
2018-08-10T10:55:10.492Z,97727.00
2018-08-10T10:57:51.134Z,97730.00
2018-08-10T11:00:32.673Z,97736.00
2018-08-10T11:03:14.519Z,97728.00
2018-08-10T11:05:56.404Z,97732.00
2018-08-10T11:08:36.871Z,97733.00
2018-08-10T11:11:17.418Z,97731.00
2018-08-10T11:14:00.608Z,97738.00
2018-08-10T11:16:41.257Z,97750.00
2018-08-10T11:19:21.847Z,97739.00
2018-08-10T11:22:02.432Z,97752.00
2018-08-10T11:24:42.864Z,97743.00
2018-08-10T11:27:23.653Z,97752.00
2018-08-10T11:30:05.406Z,97750.00
2018-08-10T11:32:46.201Z,97759.00
2018-08-10T11:35:29.760Z,97743.00
2018-08-10T11:38:10.314Z,97740.00
2018-08-10T11:40:50.883Z,97729.00
2018-08-10T11:43:32.607Z,97730.00
2018-08-10T11:46:15.229Z,97739.00
2018-08-10T11:49:00.009Z,97747.00
2018-08-10T11:51:40.447Z,97759.00
2018-08-10T11:54:21.031Z,97769.00
2018-08-10T11:57:03.022Z,97777.00
2018-08-10T11:59:43.704Z,97780.00
2018-08-10T12:02:24.913Z,97788.00
2018-08-10T12:05:08.033Z,97790.00
2018-08-10T12:07:48.561Z,97797.00
2018-08-10T12:10:31.424Z,97794.00
2018-08-10T12:13:12.108Z,97809.00
2018-08-10T12:15:52.449Z,97824.00
2018-08-10T12:18:33.064Z,97822.00
2018-08-10T12:21:13.866Z,97823.00
2018-08-10T12:23:55.073Z,97833.00
2018-08-10T12:26:35.567Z,97836.00
2018-08-10T12:29:16.063Z,97844.00
2018-08-10T12:31:57.612Z,97833.00
2018-08-10T12:34:38.013Z,97829.00
2018-08-10T12:37:18.555Z,97833.00
2018-08-10T12:40:00.555Z,97826.00
2018-08-10T12:42:41.036Z,97820.00
2018-08-10T12:45:21.472Z,97802.00
2018-08-10T12:48:02.448Z,97804.00
2018-08-10T12:50:43.072Z,97799.00
2018-08-10T12:53:23.505Z,97808.00
2018-08-10T12:56:04.336Z,97810.00
2018-08-10T12:58:44.875Z,97811.00
2018-08-10T13:01:26.541Z,97828.00
2018-08-10T13:04:07.251Z,97839.00
2018-08-10T13:06:47.881Z,97824.00
2018-08-10T13:09:30.651Z,97813.00
2018-08-10T13:12:11.200Z,97821.00
2018-08-10T13:14:51.857Z,97808.00
2018-08-10T13:17:32.425Z,97814.00
2018-08-10T13:20:14.671Z,97818.00
2018-08-10T13:22:55.227Z,97816.00
2018-08-10T13:25:35.740Z,97830.00
2018-08-10T13:28:16.232Z,97835.00
2018-08-10T13:30:58.156Z,97820.00
2018-08-10T13:33:38.652Z,97795.00
2018-08-10T13:36:19.224Z,97797.00
2018-08-10T13:39:00.709Z,97797.00
2018-08-10T13:41:42.160Z,97807.00
2018-08-10T13:44:22.655Z,97814.00
2018-08-10T13:47:03.197Z,97817.00
2018-08-10T13:49:43.575Z,97805.00
2018-08-10T13:52:24.300Z,97807.00
2018-08-10T13:55:05.231Z,97813.00
2018-08-10T13:57:46.672Z,97810.00
2018-08-10T14:00:29.887Z,97809.00
2018-08-10T14:03:10.340Z,97799.00
2018-08-10T14:05:50.975Z,97799.00
2018-08-10T14:08:32.600Z,97799.00
2018-08-10T14:11:13.212Z,97803.00
2018-08-10T14:13:53.849Z,97789.00
2018-08-10T14:16:34.460Z,97790.00
2018-08-10T14:19:14.838Z,97791.00
2018-08-10T14:21:56.579Z,97794.00
2018-08-10T14:24:37.074Z,97795.00
2018-08-10T14:27:17.690Z,97788.00
2018-08-10T14:30:00.777Z,97784.00
2018-08-10T14:32:43.376Z,97786.00
2018-08-10T14:35:24.224Z,97789.00
2018-08-10T14:38:04.847Z,97785.00
2018-08-10T14:40:45.426Z,97777.00
2018-08-10T14:43:26.696Z,97774.00
2018-08-10T14:46:07.189Z,97806.00
2018-08-10T14:48:47.688Z,97794.00
2018-08-10T14:51:30.867Z,97803.00
2018-08-10T14:54:11.321Z,97792.00
2018-08-10T14:56:51.923Z,97791.00
2018-08-10T14:59:32.458Z,97792.00
2018-08-10T15:02:12.880Z,97803.00
2018-08-10T15:04:53.749Z,97817.00
2018-08-10T15:07:34.317Z,97818.00
2018-08-10T15:10:15.980Z,97827.00
2018-08-10T15:12:57.760Z,97842.00
2018-08-10T15:15:39.079Z,97849.00
2018-08-10T15:18:19.598Z,97854.00
2018-08-10T15:21:01.242Z,97854.00
2018-08-10T15:23:41.755Z,97861.00
2018-08-10T15:26:22.705Z,97860.00
2018-08-10T15:29:07.362Z,97852.00
2018-08-10T15:31:47.956Z,97865.00
2018-08-10T15:34:30.888Z,97868.00
2018-08-10T15:37:11.398Z,97863.00
2018-08-10T15:39:52.624Z,97857.00
2018-08-10T15:42:33.105Z,97866.00
2018-08-10T15:45:14.904Z,97871.00
2018-08-10T15:47:55.468Z,97873.00
2018-08-10T15:50:36.015Z,97877.00
2018-08-10T15:53:17.394Z,97874.00
2018-08-10T15:55:58.728Z,97869.00
2018-08-10T15:58:39.255Z,97875.00
2018-08-10T16:01:19.840Z,97862.00
2018-08-10T16:04:01.618Z,97866.00
2018-08-10T16:06:42.181Z,97862.00
2018-08-10T16:09:22.882Z,97863.00
2018-08-10T16:12:03.436Z,97847.00
2018-08-10T16:14:44.039Z,97850.00
2018-08-10T16:17:24.644Z,97840.00
2018-08-10T16:20:06.884Z,97842.00
2018-08-10T16:22:47.396Z,97839.00
2018-08-10T16:25:30.091Z,97834.00
2018-08-10T16:28:10.693Z,97826.00
2018-08-10T16:30:51.236Z,97806.00
2018-08-10T16:33:32.913Z,97792.00
2018-08-10T16:36:13.399Z,97786.00
2018-08-10T16:38:54.009Z,97796.00
2018-08-10T16:41:34.423Z,97827.00
2018-08-10T16:44:14.966Z,97834.00
2018-08-10T16:46:55.583Z,97830.00
2018-08-10T16:49:37.964Z,97833.00
2018-08-10T16:52:18.669Z,97828.00
2018-08-10T16:55:01.488Z,97828.00
2018-08-10T16:57:42.921Z,97844.00
2018-08-10T17:00:23.818Z,97855.00
2018-08-10T17:03:04.203Z,97853.00
2018-08-10T17:05:44.830Z,97865.00
2018-08-10T17:09:11.959Z,97870.00
2018-08-10T17:11:53.234Z,97867.00
2018-08-10T17:14:33.836Z,97869.00
2018-08-10T17:17:14.416Z,97865.00
2018-08-10T17:19:54.961Z,97876.00
2018-08-10T17:22:36.256Z,97886.00
2018-08-10T17:25:20.677Z,97892.00
2018-08-10T17:28:02.274Z,97882.00
2018-08-10T17:30:43.676Z,97882.00
2018-08-10T17:33:24.331Z,97895.00
2018-08-10T17:36:04.781Z,97900.00
2018-08-10T17:38:45.469Z,97895.00
2018-08-10T17:41:26.117Z,97897.00
2018-08-10T17:44:06.756Z,97906.00
2018-08-10T17:46:47.424Z,97910.00
2018-08-10T17:49:29.297Z,97919.00
2018-08-10T17:52:09.985Z,97920.00
2018-08-10T17:54:50.548Z,97931.00
2018-08-10T17:57:32.321Z,97929.00
2018-08-10T18:00:16.255Z,97941.00
2018-08-10T18:02:57.965Z,97938.00
2018-08-10T18:05:38.493Z,97935.00
2018-08-10T18:08:19.122Z,97940.00
2018-08-10T18:11:01.605Z,97933.00
2018-08-10T18:13:42.209Z,97925.00
2018-08-10T18:16:22.780Z,97919.00
2018-08-10T18:19:03.397Z,97916.00
2018-08-10T18:21:44.072Z,97919.00
2018-08-10T18:24:24.531Z,97919.00
2018-08-10T18:27:04.995Z,97924.00
2018-08-10T18:29:45.571Z,97945.00
2018-08-10T18:32:26.092Z,97959.00
2018-08-10T18:35:07.796Z,97968.00
2018-08-10T18:37:49.021Z,97985.00
2018-08-10T18:40:34.512Z,97986.00
2018-08-10T18:43:16.141Z,97986.00
2018-08-10T18:45:57.696Z,97986.00
2018-08-10T18:48:38.489Z,97977.00
2018-08-10T18:51:19.096Z,97974.00
2018-08-10T18:54:01.887Z,97971.00
2018-08-10T18:56:42.443Z,97978.00
2018-08-10T18:59:23.002Z,97986.00
2018-08-10T19:02:03.634Z,97984.00
2018-08-10T19:04:44.124Z,97996.00
2018-08-10T19:07:24.872Z,97994.00
2018-08-10T19:10:06.309Z,97989.00
2018-08-10T19:12:46.980Z,97993.00
2018-08-10T19:15:29.012Z,98009.00
2018-08-10T19:18:09.504Z,98013.00
2018-08-10T19:20:50.065Z,97997.00
2018-08-10T19:23:31.885Z,98006.00
2018-08-10T19:26:12.269Z,98008.00
2018-08-10T19:28:52.888Z,98007.00
2018-08-10T19:31:34.200Z,98009.00
2018-08-10T19:34:14.775Z,98015.00
2018-08-10T19:36:55.349Z,98013.00
2018-08-10T19:39:36.112Z,98013.00
2018-08-10T19:42:16.648Z,98000.00
2018-08-10T19:44:57.792Z,98003.00
2018-08-10T19:47:38.630Z,98007.00
2018-08-10T19:50:22.859Z,98016.00
2018-08-10T19:53:03.687Z,98008.00
2018-08-10T19:55:44.268Z,98006.00
2018-08-10T19:58:24.836Z,98009.00
2018-08-10T20:01:05.484Z,98021.00
2018-08-10T20:03:46.077Z,98014.00
2018-08-10T20:06:27.887Z,98015.00
2018-08-10T20:09:11.559Z,98017.00
2018-08-10T20:11:51.947Z,98007.00
2018-08-10T20:14:33.818Z,98015.00
2018-08-10T20:17:14.748Z,98022.00
2018-08-10T20:19:55.347Z,98024.00
2018-08-10T20:22:35.871Z,98025.00
2018-08-10T20:25:16.759Z,98016.00
2018-08-10T20:27:58.131Z,98018.00
2018-08-10T20:30:38.708Z,98012.00
2018-08-10T20:33:19.172Z,98000.00
2018-08-10T20:36:01.250Z,98003.00
2018-08-10T20:38:41.625Z,98001.00
2018-08-10T20:41:22.360Z,97999.00
2018-08-10T20:44:04.119Z,98004.00
2018-08-10T20:46:44.624Z,98003.00
2018-08-10T20:49:25.112Z,98005.00
2018-08-10T20:52:05.607Z,97999.00
2018-08-10T20:54:46.757Z,97996.00
2018-08-10T20:57:28.595Z,97991.00
2018-08-10T21:00:09.887Z,97987.00
2018-08-10T21:02:50.389Z,97991.00
2018-08-10T21:05:32.284Z,97980.00
2018-08-10T21:08:12.896Z,97993.00
2018-08-10T21:10:53.218Z,97989.00
2018-08-10T21:13:34.032Z,97983.00
2018-08-10T21:16:14.616Z,97974.00
2018-08-10T21:18:55.279Z,97971.00
2018-08-10T21:21:35.807Z,97954.00
2018-08-10T21:24:16.369Z,97959.00
2018-08-10T21:26:56.796Z,97945.00
2018-08-10T21:29:37.341Z,97937.00
2018-08-10T21:32:17.825Z,97939.00
2018-08-10T21:34:59.159Z,97945.00
2018-08-10T21:37:39.638Z,97964.00
2018-08-10T21:40:20.505Z,97970.00
2018-08-10T21:43:02.288Z,97969.00
2018-08-10T21:45:42.827Z,97963.00
2018-08-10T21:48:23.192Z,97964.00
2018-08-10T21:51:04.167Z,97953.00
2018-08-10T21:53:44.522Z,97960.00
2018-08-10T21:56:24.853Z,97956.00
2018-08-10T21:59:05.581Z,97952.00
2018-08-10T22:01:46.171Z,97942.00
2018-08-10T22:04:26.754Z,97936.00
2018-08-10T22:07:07.344Z,97931.00
2018-08-10T22:09:47.938Z,97940.00
2018-08-10T22:12:29.278Z,97952.00
2018-08-10T22:15:14.972Z,97952.00
2018-08-10T22:18:01.588Z,97957.00
2018-08-10T22:20:41.991Z,97937.00
2018-08-10T22:23:22.696Z,97933.00
2018-08-10T22:26:04.260Z,97934.00
2018-08-10T22:28:44.806Z,97930.00
2018-08-10T22:31:25.312Z,97918.00
2018-08-10T22:34:06.160Z,97908.00
2018-08-10T22:36:46.715Z,97910.00
2018-08-10T22:39:28.663Z,97906.00
2018-08-10T22:42:09.243Z,97917.00
2018-08-10T22:44:49.769Z,97921.00
2018-08-10T22:47:32.359Z,97916.00
2018-08-10T22:50:12.923Z,97917.00
2018-08-10T22:52:53.558Z,97925.00
2018-08-10T22:55:34.096Z,97929.00
2018-08-10T22:58:14.556Z,97928.00
2018-08-10T23:00:55.748Z,97926.00
2018-08-10T23:03:36.144Z,97924.00
2018-08-10T23:06:16.714Z,97923.00
2018-08-10T23:08:58.465Z,97925.00
2018-08-10T23:11:39.013Z,97928.00
2018-08-10T23:14:19.557Z,97917.00
2018-08-10T23:17:02.292Z,97908.00
2018-08-10T23:19:42.584Z,97896.00
2018-08-10T23:22:23.075Z,97902.00
2018-08-10T23:25:05.235Z,97894.00
2018-08-10T23:27:45.668Z,97895.00
2018-08-10T23:30:26.244Z,97892.00
2018-08-10T23:33:06.765Z,97894.00
2018-08-10T23:35:47.104Z,97905.00
2018-08-10T23:38:28.562Z,97905.00
2018-08-10T23:41:08.950Z,97907.00
2018-08-10T23:43:49.447Z,97910.00
2018-08-10T23:46:32.256Z,97904.00
2018-08-10T23:49:12.780Z,97919.00
2018-08-10T23:51:53.257Z,97923.00
2018-08-10T23:54:34.364Z,97943.00
2018-08-10T23:57:14.795Z,97952.00
2018-08-10T23:59:55.357Z,97943.00
